sensor_id;sensor_type;location;lat;lon;timestamp;temperature;humidity
17529;DHT22;8882;53.192;8.184;2023-06-19T04:31:14;21.60;1.00
17529;DHT22;8882;53.192;8.184;2023-06-19T04:33:43;21.50;1.00
17529;DHT22;8882;53.192;8.184;2023-06-19T04:36:09;21.60;1.00
17529;DHT22;8882;53.192;8.184;2023-06-19T04:38:35;21.60;1.00
17529;DHT22;8882;53.192;8.184;2023-06-19T04:41:00;21.60;1.00
17529;DHT22;8882;53.192;8.184;2023-06-19T04:43:26;21.70;1.00
17529;DHT22;8882;53.192;8.184;2023-06-19T04:45:51;21.60;1.00
17529;DHT22;8882;53.192;8.184;2023-06-19T04:48:17;21.60;1.00
17529;DHT22;8882;53.192;8.184;2023-06-19T04:50:42;21.70;1.00
17529;DHT22;8882;53.192;8.184;2023-06-19T04:53:08;21.70;1.00
17529;DHT22;8882;53.192;8.184;2023-06-19T04:55:33;21.70;1.00
17529;DHT22;8882;53.192;8.184;2023-06-19T04:57:59;21.80;1.00
17529;DHT22;8882;53.192;8.184;2023-06-19T05:00:24;21.70;1.00
17529;DHT22;8882;53.192;8.184;2023-06-19T05:02:50;21.80;1.00
17529;DHT22;8882;53.192;8.184;2023-06-19T05:05:17;21.80;1.00
17529;DHT22;8882;53.192;8.184;2023-06-19T05:07:43;21.80;1.00
17529;DHT22;8882;53.192;8.184;2023-06-19T05:10:10;21.80;1.00
17529;DHT22;8882;53.192;8.184;2023-06-19T05:12:36;21.80;1.00
17529;DHT22;8882;53.192;8.184;2023-06-19T05:15:01;21.80;1.00
17529;DHT22;8882;53.192;8.184;2023-06-19T05:17:27;21.80;1.00
17529;DHT22;8882;53.192;8.184;2023-06-19T05:19:53;21.80;1.00
17529;DHT22;8882;53.192;8.184;2023-06-19T05:22:18;21.90;1.00
17529;DHT22;8882;53.192;8.184;2023-06-19T05:24:44;21.90;1.00
17529;DHT22;8882;53.192;8.184;2023-06-19T05:27:10;22.00;1.00
17529;DHT22;8882;53.192;8.184;2023-06-19T05:29:36;22.00;1.00
17529;DHT22;8882;53.192;8.184;2023-06-19T05:32:01;22.20;1.00
17529;DHT22;8882;53.192;8.184;2023-06-19T05:34:27;22.30;1.00
17529;DHT22;8882;53.192;8.184;2023-06-19T05:36:53;22.50;1.00
17529;DHT22;8882;53.192;8.184;2023-06-19T05:39:18;22.70;1.00
17529;DHT22;8882;53.192;8.184;2023-06-19T05:41:44;22.90;1.00
17529;DHT22;8882;53.192;8.184;2023-06-19T05:44:11;23.10;1.00
17529;DHT22;8882;53.192;8.184;2023-06-19T05:46:40;23.10;1.00
17529;DHT22;8882;53.192;8.184;2023-06-19T05:49:06;23.10;1.00
17529;DHT22;8882;53.192;8.184;2023-06-19T05:51:31;23.10;1.00
17529;DHT22;8882;53.192;8.184;2023-06-19T05:53:57;23.10;1.00
17529;DHT22;8882;53.192;8.184;2023-06-19T05:56:28;23.10;1.00
17529;DHT22;8882;53.192;8.184;2023-06-19T05:58:54;23.10;1.00
17529;DHT22;8882;53.192;8.184;2023-06-19T06:01:19;23.10;1.00
17529;DHT22;8882;53.192;8.184;2023-06-19T06:03:45;23.30;1.00
17529;DHT22;8882;53.192;8.184;2023-06-19T06:06:10;23.60;1.00
17529;DHT22;8882;53.192;8.184;2023-06-19T06:08:36;23.70;1.00
17529;DHT22;8882;53.192;8.184;2023-06-19T06:11:02;23.80;1.00
17529;DHT22;8882;53.192;8.184;2023-06-19T06:13:27;23.70;1.00
17529;DHT22;8882;53.192;8.184;2023-06-19T06:15:53;23.60;1.00
17529;DHT22;8882;53.192;8.184;2023-06-19T06:18:19;23.40;1.00
17529;DHT22;8882;53.192;8.184;2023-06-19T06:20:44;23.40;1.00
17529;DHT22;8882;53.192;8.184;2023-06-19T06:23:10;23.30;1.00
17529;DHT22;8882;53.192;8.184;2023-06-19T06:25:35;23.30;1.00
17529;DHT22;8882;53.192;8.184;2023-06-19T06:28:01;23.30;1.00
17529;DHT22;8882;53.192;8.184;2023-06-19T06:30:26;23.20;1.00
17529;DHT22;8882;53.192;8.184;2023-06-19T06:32:53;23.20;1.00
17529;DHT22;8882;53.192;8.184;2023-06-19T06:35:19;23.10;1.00
17529;DHT22;8882;53.192;8.184;2023-06-19T06:37:44;23.20;1.00
17529;DHT22;8882;53.192;8.184;2023-06-19T06:40:11;23.20;1.00
17529;DHT22;8882;53.192;8.184;2023-06-19T06:42:38;23.30;1.00
17529;DHT22;8882;53.192;8.184;2023-06-19T06:45:06;23.30;1.00
17529;DHT22;8882;53.192;8.184;2023-06-19T06:47:33;23.20;1.00
17529;DHT22;8882;53.192;8.184;2023-06-19T06:49:58;23.20;1.00
17529;DHT22;8882;53.192;8.184;2023-06-19T06:52:24;23.30;1.00
17529;DHT22;8882;53.192;8.184;2023-06-19T06:54:49;23.40;1.00
17529;DHT22;8882;53.192;8.184;2023-06-19T06:57:16;23.60;1.00
17529;DHT22;8882;53.192;8.184;2023-06-19T06:59:41;23.60;1.00
17529;DHT22;8882;53.192;8.184;2023-06-19T07:02:07;23.60;1.00
17529;DHT22;8882;53.192;8.184;2023-06-19T07:04:32;23.50;1.00
17529;DHT22;8882;53.192;8.184;2023-06-19T07:06:58;23.70;1.00
17529;DHT22;8882;53.192;8.184;2023-06-19T07:09:23;23.80;1.00
17529;DHT22;8882;53.192;8.184;2023-06-19T07:11:49;24.00;1.00
17529;DHT22;8882;53.192;8.184;2023-06-19T07:14:15;24.20;1.00
17529;DHT22;8882;53.192;8.184;2023-06-19T07:16:44;24.50;1.00
17529;DHT22;8882;53.192;8.184;2023-06-19T07:19:11;24.30;1.00
17529;DHT22;8882;53.192;8.184;2023-06-19T07:21:36;24.50;1.00
17529;DHT22;8882;53.192;8.184;2023-06-19T07:24:04;24.60;1.00
17529;DHT22;8882;53.192;8.184;2023-06-19T07:26:30;24.80;1.00
17529;DHT22;8882;53.192;8.184;2023-06-19T07:28:55;24.90;1.00
17529;DHT22;8882;53.192;8.184;2023-06-19T07:31:21;25.20;1.00
17529;DHT22;8882;53.192;8.184;2023-06-19T07:33:46;25.40;1.00
17529;DHT22;8882;53.192;8.184;2023-06-19T07:36:12;25.60;1.00
17529;DHT22;8882;53.192;8.184;2023-06-19T07:38:42;25.80;1.00
17529;DHT22;8882;53.192;8.184;2023-06-19T07:41:08;26.00;1.00
17529;DHT22;8882;53.192;8.184;2023-06-19T07:43:35;26.10;1.00
17529;DHT22;8882;53.192;8.184;2023-06-19T07:46:01;26.30;1.00
17529;DHT22;8882;53.192;8.184;2023-06-19T07:48:27;26.10;1.00
17529;DHT22;8882;53.192;8.184;2023-06-19T07:50:53;25.90;1.00
17529;DHT22;8882;53.192;8.184;2023-06-19T07:53:19;25.80;1.00
17529;DHT22;8882;53.192;8.184;2023-06-19T07:55:45;25.90;1.00
17529;DHT22;8882;53.192;8.184;2023-06-19T07:58:10;26.00;1.00
17529;DHT22;8882;53.192;8.184;2023-06-19T08:00:36;26.10;1.00
17529;DHT22;8882;53.192;8.184;2023-06-19T08:03:01;26.00;1.00
17529;DHT22;8882;53.192;8.184;2023-06-19T08:05:27;25.80;1.00
17529;DHT22;8882;53.192;8.184;2023-06-19T08:07:52;25.90;1.00
17529;DHT22;8882;53.192;8.184;2023-06-19T08:10:18;25.80;1.00
17529;DHT22;8882;53.192;8.184;2023-06-19T08:12:44;25.90;1.00
17529;DHT22;8882;53.192;8.184;2023-06-19T08:15:11;25.90;1.00
17529;DHT22;8882;53.192;8.184;2023-06-19T08:17:36;25.90;1.00
17529;DHT22;8882;53.192;8.184;2023-06-19T08:20:02;26.20;1.00
17529;DHT22;8882;53.192;8.184;2023-06-19T08:22:31;25.90;1.00
17529;DHT22;8882;53.192;8.184;2023-06-19T08:24:57;26.20;1.00
17529;DHT22;8882;53.192;8.184;2023-06-19T08:27:22;26.50;1.00
17529;DHT22;8882;53.192;8.184;2023-06-19T08:29:48;26.80;1.00
17529;DHT22;8882;53.192;8.184;2023-06-19T08:32:13;26.90;1.00
17529;DHT22;8882;53.192;8.184;2023-06-19T08:34:39;26.90;1.00
17529;DHT22;8882;53.192;8.184;2023-06-19T08:37:05;26.90;1.00
17529;DHT22;8882;53.192;8.184;2023-06-19T08:39:31;26.80;1.00
17529;DHT22;8882;53.192;8.184;2023-06-19T08:41:56;26.90;1.00
17529;DHT22;8882;53.192;8.184;2023-06-19T08:44:22;26.90;1.00
17529;DHT22;8882;53.192;8.184;2023-06-19T08:46:47;26.80;1.00
17529;DHT22;8882;53.192;8.184;2023-06-19T08:49:13;26.70;1.00
17529;DHT22;8882;53.192;8.184;2023-06-19T08:51:40;26.50;1.00
17529;DHT22;8882;53.192;8.184;2023-06-19T08:54:07;26.30;1.00
17529;DHT22;8882;53.192;8.184;2023-06-19T08:56:34;26.40;1.00
17529;DHT22;8882;53.192;8.184;2023-06-19T08:59:17;26.60;1.00
17529;DHT22;8882;53.192;8.184;2023-06-19T09:01:53;26.90;1.00
17529;DHT22;8882;53.192;8.184;2023-06-19T09:04:25;26.80;1.00
17529;DHT22;8882;53.192;8.184;2023-06-19T09:06:56;26.70;1.00
17529;DHT22;8882;53.192;8.184;2023-06-19T09:09:24;26.50;1.00
17529;DHT22;8882;53.192;8.184;2023-06-19T09:12:06;26.20;1.00
17529;DHT22;8882;53.192;8.184;2023-06-19T09:14:35;26.10;1.00
17529;DHT22;8882;53.192;8.184;2023-06-19T09:17:02;26.10;1.00
17529;DHT22;8882;53.192;8.184;2023-06-19T09:19:28;26.40;1.00
17529;DHT22;8882;53.192;8.184;2023-06-19T09:22:06;26.50;1.00
17529;DHT22;8882;53.192;8.184;2023-06-19T09:24:37;26.70;1.00
17529;DHT22;8882;53.192;8.184;2023-06-19T09:27:10;26.80;1.00
17529;DHT22;8882;53.192;8.184;2023-06-19T09:29:39;27.00;1.00
17529;DHT22;8882;53.192;8.184;2023-06-19T09:32:22;26.80;1.00
17529;DHT22;8882;53.192;8.184;2023-06-19T09:34:49;26.80;1.00
17529;DHT22;8882;53.192;8.184;2023-06-19T09:37:28;26.80;1.00
17529;DHT22;8882;53.192;8.184;2023-06-19T09:39:55;26.60;1.00
17529;DHT22;8882;53.192;8.184;2023-06-19T09:42:30;26.40;1.00
17529;DHT22;8882;53.192;8.184;2023-06-19T09:45:01;26.30;1.00
17529;DHT22;8882;53.192;8.184;2023-06-19T09:47:41;26.10;1.00
17529;DHT22;8882;53.192;8.184;2023-06-19T09:50:07;25.80;1.00
17529;DHT22;8882;53.192;8.184;2023-06-19T09:52:34;25.60;1.00
17529;DHT22;8882;53.192;8.184;2023-06-19T09:55:02;25.20;1.00
17529;DHT22;8882;53.192;8.184;2023-06-19T09:57:29;25.20;1.00
17529;DHT22;8882;53.192;8.184;2023-06-19T09:59:55;25.20;1.00
17529;DHT22;8882;53.192;8.184;2023-06-19T10:02:22;25.00;1.00
17529;DHT22;8882;53.192;8.184;2023-06-19T10:04:52;25.00;1.00
17529;DHT22;8882;53.192;8.184;2023-06-19T10:07:20;24.50;1.00
17529;DHT22;8882;53.192;8.184;2023-06-19T10:10:05;24.50;1.00
17529;DHT22;8882;53.192;8.184;2023-06-19T10:12:43;24.50;1.00
17529;DHT22;8882;53.192;8.184;2023-06-19T10:15:09;24.30;1.00
17529;DHT22;8882;53.192;8.184;2023-06-19T10:17:37;24.30;1.00
17529;DHT22;8882;53.192;8.184;2023-06-19T10:20:03;24.40;1.00
17529;DHT22;8882;53.192;8.184;2023-06-19T10:22:32;24.50;1.00
17529;DHT22;8882;53.192;8.184;2023-06-19T10:24:57;24.50;1.00
17529;DHT22;8882;53.192;8.184;2023-06-19T10:27:24;24.40;1.00
17529;DHT22;8882;53.192;8.184;2023-06-19T10:29:53;24.30;1.00
17529;DHT22;8882;53.192;8.184;2023-06-19T10:32:20;24.20;1.00
17529;DHT22;8882;53.192;8.184;2023-06-19T10:34:46;24.20;1.00
17529;DHT22;8882;53.192;8.184;2023-06-19T10:37:12;24.00;1.00
17529;DHT22;8882;53.192;8.184;2023-06-19T10:39:38;23.90;1.00
17529;DHT22;8882;53.192;8.184;2023-06-19T10:42:07;23.80;1.00
17529;DHT22;8882;53.192;8.184;2023-06-19T10:44:34;23.70;1.00
17529;DHT22;8882;53.192;8.184;2023-06-19T10:47:00;23.80;1.00
17529;DHT22;8882;53.192;8.184;2023-06-19T10:49:26;23.80;1.00
17529;DHT22;8882;53.192;8.184;2023-06-19T10:51:52;23.90;1.00
17529;DHT22;8882;53.192;8.184;2023-06-19T10:54:24;24.00;1.00
17529;DHT22;8882;53.192;8.184;2023-06-19T10:56:50;24.20;1.00
17529;DHT22;8882;53.192;8.184;2023-06-19T10:59:17;24.20;1.00
17529;DHT22;8882;53.192;8.184;2023-06-19T11:01:47;24.10;1.00
17529;DHT22;8882;53.192;8.184;2023-06-19T11:04:15;24.20;1.00
17529;DHT22;8882;53.192;8.184;2023-06-19T11:06:42;24.20;1.00
17529;DHT22;8882;53.192;8.184;2023-06-19T11:09:10;24.30;1.00
17529;DHT22;8882;53.192;8.184;2023-06-19T11:11:47;24.20;1.00
17529;DHT22;8882;53.192;8.184;2023-06-19T11:14:14;24.10;1.00
17529;DHT22;8882;53.192;8.184;2023-06-19T11:16:42;24.10;1.00
17529;DHT22;8882;53.192;8.184;2023-06-19T11:19:13;24.10;1.00
17529;DHT22;8882;53.192;8.184;2023-06-19T11:21:39;24.00;1.00
17529;DHT22;8882;53.192;8.184;2023-06-19T11:24:06;23.90;1.00
17529;DHT22;8882;53.192;8.184;2023-06-19T11:26:39;23.80;1.00
17529;DHT22;8882;53.192;8.184;2023-06-19T11:29:20;23.70;1.00
17529;DHT22;8882;53.192;8.184;2023-06-19T11:31:46;23.70;1.00
17529;DHT22;8882;53.192;8.184;2023-06-19T11:34:13;23.60;1.00
17529;DHT22;8882;53.192;8.184;2023-06-19T11:36:40;23.50;1.00
17529;DHT22;8882;53.192;8.184;2023-06-19T11:39:13;23.60;1.00
17529;DHT22;8882;53.192;8.184;2023-06-19T11:41:39;23.60;1.00
17529;DHT22;8882;53.192;8.184;2023-06-19T11:44:07;23.50;1.00
17529;DHT22;8882;53.192;8.184;2023-06-19T11:46:34;23.60;1.00
17529;DHT22;8882;53.192;8.184;2023-06-19T11:49:17;23.60;1.00
17529;DHT22;8882;53.192;8.184;2023-06-19T11:51:44;23.60;1.00
17529;DHT22;8882;53.192;8.184;2023-06-19T11:54:11;23.70;1.00
17529;DHT22;8882;53.192;8.184;2023-06-19T11:56:38;23.70;1.00
17529;DHT22;8882;53.192;8.184;2023-06-19T11:59:04;23.70;7.40
17529;DHT22;8882;53.192;8.184;2023-06-19T12:01:31;23.70;1.00
17529;DHT22;8882;53.192;8.184;2023-06-19T12:03:58;23.70;1.90
17529;DHT22;8882;53.192;8.184;2023-06-19T12:06:23;23.60;1.00
17529;DHT22;8882;53.192;8.184;2023-06-19T12:08:49;23.60;12.10
17529;DHT22;8882;53.192;8.184;2023-06-19T12:11:14;23.70;11.10
17529;DHT22;8882;53.192;8.184;2023-06-19T12:13:41;23.80;12.70
17529;DHT22;8882;53.192;8.184;2023-06-19T12:16:07;24.00;37.20
17529;DHT22;8882;53.192;8.184;2023-06-19T12:18:33;24.20;1.00
17529;DHT22;8882;53.192;8.184;2023-06-19T12:20:59;24.40;1.00
17529;DHT22;8882;53.192;8.184;2023-06-19T12:23:24;24.30;1.00
17529;DHT22;8882;53.192;8.184;2023-06-19T12:25:50;24.50;1.00
17529;DHT22;8882;53.192;8.184;2023-06-19T12:28:15;24.70;1.00
17529;DHT22;8882;53.192;8.184;2023-06-19T12:30:44;25.00;1.00
17529;DHT22;8882;53.192;8.184;2023-06-19T12:33:10;25.20;1.00
17529;DHT22;8882;53.192;8.184;2023-06-19T12:35:39;25.10;1.00
17529;DHT22;8882;53.192;8.184;2023-06-19T12:38:05;25.30;1.00
17529;DHT22;8882;53.192;8.184;2023-06-19T12:40:32;25.50;1.00
17529;DHT22;8882;53.192;8.184;2023-06-19T12:42:57;25.70;1.00
17529;DHT22;8882;53.192;8.184;2023-06-19T12:45:23;25.90;1.00
17529;DHT22;8882;53.192;8.184;2023-06-19T12:47:48;25.90;1.00
17529;DHT22;8882;53.192;8.184;2023-06-19T12:50:14;25.90;1.00
17529;DHT22;8882;53.192;8.184;2023-06-19T12:52:39;25.90;1.00
17529;DHT22;8882;53.192;8.184;2023-06-19T12:55:05;25.90;1.00
17529;DHT22;8882;53.192;8.184;2023-06-19T12:57:30;25.90;1.00
17529;DHT22;8882;53.192;8.184;2023-06-19T12:59:56;25.70;1.00
17529;DHT22;8882;53.192;8.184;2023-06-19T13:02:22;25.60;1.00
17529;DHT22;8882;53.192;8.184;2023-06-19T13:04:48;25.60;1.00
17529;DHT22;8882;53.192;8.184;2023-06-19T13:07:13;25.60;1.00
17529;DHT22;8882;53.192;8.184;2023-06-19T13:09:39;25.70;1.00
17529;DHT22;8882;53.192;8.184;2023-06-19T13:12:04;25.80;1.00
17529;DHT22;8882;53.192;8.184;2023-06-19T13:14:30;26.00;1.00
17529;DHT22;8882;53.192;8.184;2023-06-19T13:16:57;26.10;1.00
17529;DHT22;8882;53.192;8.184;2023-06-19T13:19:23;26.10;1.00
17529;DHT22;8882;53.192;8.184;2023-06-19T13:21:48;26.20;1.00
17529;DHT22;8882;53.192;8.184;2023-06-19T13:24:14;26.30;1.00
17529;DHT22;8882;53.192;8.184;2023-06-19T13:26:39;26.40;1.00
17529;DHT22;8882;53.192;8.184;2023-06-19T13:29:05;26.40;1.00
17529;DHT22;8882;53.192;8.184;2023-06-19T13:31:31;26.50;1.00
17529;DHT22;8882;53.192;8.184;2023-06-19T13:33:56;26.50;1.00
17529;DHT22;8882;53.192;8.184;2023-06-19T13:36:22;26.40;1.00
17529;DHT22;8882;53.192;8.184;2023-06-19T13:38:50;26.50;1.00
17529;DHT22;8882;53.192;8.184;2023-06-19T13:41:15;26.60;1.00
17529;DHT22;8882;53.192;8.184;2023-06-19T13:43:41;26.60;1.00
17529;DHT22;8882;53.192;8.184;2023-06-19T13:46:07;26.80;1.00
17529;DHT22;8882;53.192;8.184;2023-06-19T13:48:33;26.80;1.00
17529;DHT22;8882;53.192;8.184;2023-06-19T13:51:00;26.60;1.00
17529;DHT22;8882;53.192;8.184;2023-06-19T13:53:26;26.50;1.00
17529;DHT22;8882;53.192;8.184;2023-06-19T13:55:54;26.30;1.00
17529;DHT22;8882;53.192;8.184;2023-06-19T13:58:19;26.30;1.00
17529;DHT22;8882;53.192;8.184;2023-06-19T14:00:45;26.40;1.00
17529;DHT22;8882;53.192;8.184;2023-06-19T14:03:10;26.30;1.00
17529;DHT22;8882;53.192;8.184;2023-06-19T14:05:36;26.30;1.00
17529;DHT22;8882;53.192;8.184;2023-06-19T14:08:02;26.30;1.00
17529;DHT22;8882;53.192;8.184;2023-06-19T14:10:29;26.30;1.00
17529;DHT22;8882;53.192;8.184;2023-06-19T14:12:54;26.30;1.00
17529;DHT22;8882;53.192;8.184;2023-06-19T14:15:20;26.30;1.00
17529;DHT22;8882;53.192;8.184;2023-06-19T14:17:45;26.30;1.00
17529;DHT22;8882;53.192;8.184;2023-06-19T14:20:11;26.30;1.00
17529;DHT22;8882;53.192;8.184;2023-06-19T14:22:37;26.40;1.00
17529;DHT22;8882;53.192;8.184;2023-06-19T14:25:02;26.50;1.00
17529;DHT22;8882;53.192;8.184;2023-06-19T14:27:28;26.50;1.00
17529;DHT22;8882;53.192;8.184;2023-06-19T14:29:57;26.60;1.00
17529;DHT22;8882;53.192;8.184;2023-06-19T14:32:23;26.50;1.00
17529;DHT22;8882;53.192;8.184;2023-06-19T14:34:49;26.50;99.90
17529;DHT22;8882;53.192;8.184;2023-06-19T14:37:14;26.30;99.90
17529;DHT22;8882;53.192;8.184;2023-06-19T14:39:40;26.30;99.90
17529;DHT22;8882;53.192;8.184;2023-06-19T14:42:06;26.20;1.00
17529;DHT22;8882;53.192;8.184;2023-06-19T14:44:31;26.10;1.00
17529;DHT22;8882;53.192;8.184;2023-06-19T14:46:58;26.20;1.00
17529;DHT22;8882;53.192;8.184;2023-06-19T14:49:24;26.20;1.00
17529;DHT22;8882;53.192;8.184;2023-06-19T14:51:49;26.10;1.00
17529;DHT22;8882;53.192;8.184;2023-06-19T14:54:15;25.90;1.00
17529;DHT22;8882;53.192;8.184;2023-06-19T14:56:44;25.90;1.00
17529;DHT22;8882;53.192;8.184;2023-06-19T14:59:10;26.00;1.00
17529;DHT22;8882;53.192;8.184;2023-06-19T15:01:35;25.90;1.00
17529;DHT22;8882;53.192;8.184;2023-06-19T15:04:01;26.00;1.00
17529;DHT22;8882;53.192;8.184;2023-06-19T15:06:26;26.00;1.00
17529;DHT22;8882;53.192;8.184;2023-06-19T15:08:52;26.00;1.00
17529;DHT22;8882;53.192;8.184;2023-06-19T15:11:17;26.00;1.00
17529;DHT22;8882;53.192;8.184;2023-06-19T15:13:43;25.90;1.00
17529;DHT22;8882;53.192;8.184;2023-06-19T15:16:09;25.90;1.00
17529;DHT22;8882;53.192;8.184;2023-06-19T15:18:37;25.90;1.00
17529;DHT22;8882;53.192;8.184;2023-06-19T15:21:03;26.00;1.00
17529;DHT22;8882;53.192;8.184;2023-06-19T15:23:31;25.90;1.00
17529;DHT22;8882;53.192;8.184;2023-06-19T15:25:56;25.90;1.00
17529;DHT22;8882;53.192;8.184;2023-06-19T15:28:22;25.90;1.00
17529;DHT22;8882;53.192;8.184;2023-06-19T15:30:47;25.90;1.00
17529;DHT22;8882;53.192;8.184;2023-06-19T15:33:13;25.80;1.00
17529;DHT22;8882;53.192;8.184;2023-06-19T15:35:38;25.80;1.00
17529;DHT22;8882;53.192;8.184;2023-06-19T15:38:05;25.90;1.00
17529;DHT22;8882;53.192;8.184;2023-06-19T15:40:30;25.90;1.00
17529;DHT22;8882;53.192;8.184;2023-06-19T15:42:56;25.90;1.00
17529;DHT22;8882;53.192;8.184;2023-06-19T15:45:22;25.90;1.00
17529;DHT22;8882;53.192;8.184;2023-06-19T15:47:48;25.80;1.00
17529;DHT22;8882;53.192;8.184;2023-06-19T15:50:13;25.70;1.00
17529;DHT22;8882;53.192;8.184;2023-06-19T15:52:39;25.70;1.00
17529;DHT22;8882;53.192;8.184;2023-06-19T15:55:04;25.60;1.00
17529;DHT22;8882;53.192;8.184;2023-06-19T15:57:30;25.60;1.00
17529;DHT22;8882;53.192;8.184;2023-06-19T15:59:56;25.60;1.00
17529;DHT22;8882;53.192;8.184;2023-06-19T16:02:21;25.60;1.00
17529;DHT22;8882;53.192;8.184;2023-06-19T16:04:47;25.60;1.00
17529;DHT22;8882;53.192;8.184;2023-06-19T16:07:13;25.60;99.90
17529;DHT22;8882;53.192;8.184;2023-06-19T16:09:38;25.60;1.00
17529;DHT22;8882;53.192;8.184;2023-06-19T16:12:04;25.60;1.00
17529;DHT22;8882;53.192;8.184;2023-06-19T16:14:30;25.60;1.00
17529;DHT22;8882;53.192;8.184;2023-06-19T16:16:56;25.60;1.00
17529;DHT22;8882;53.192;8.184;2023-06-19T16:19:21;25.60;1.00
17529;DHT22;8882;53.192;8.184;2023-06-19T16:21:47;25.50;1.00
17529;DHT22;8882;53.192;8.184;2023-06-19T16:24:12;25.40;1.00
17529;DHT22;8882;53.192;8.184;2023-06-19T16:26:38;25.40;1.00
17529;DHT22;8882;53.192;8.184;2023-06-19T16:29:03;25.40;1.00
17529;DHT22;8882;53.192;8.184;2023-06-19T16:31:29;25.50;1.00
17529;DHT22;8882;53.192;8.184;2023-06-19T16:33:54;25.70;1.00
17529;DHT22;8882;53.192;8.184;2023-06-19T16:36:20;25.80;1.00
17529;DHT22;8882;53.192;8.184;2023-06-19T16:38:46;25.80;99.90
17529;DHT22;8882;53.192;8.184;2023-06-19T16:41:11;25.70;1.00
17529;DHT22;8882;53.192;8.184;2023-06-19T16:43:38;25.80;99.90
17529;DHT22;8882;53.192;8.184;2023-06-19T16:46:04;25.70;1.00
17529;DHT22;8882;53.192;8.184;2023-06-19T16:48:29;25.70;1.00
17529;DHT22;8882;53.192;8.184;2023-06-19T16:50:55;25.70;1.00
17529;DHT22;8882;53.192;8.184;2023-06-19T16:53:20;25.70;1.00
17529;DHT22;8882;53.192;8.184;2023-06-19T16:55:46;25.60;1.00
17529;DHT22;8882;53.192;8.184;2023-06-19T16:58:13;25.60;1.00
17529;DHT22;8882;53.192;8.184;2023-06-19T17:00:38;25.60;1.00
17529;DHT22;8882;53.192;8.184;2023-06-19T17:03:04;25.50;1.00
17529;DHT22;8882;53.192;8.184;2023-06-19T17:05:29;25.50;1.00
17529;DHT22;8882;53.192;8.184;2023-06-19T17:07:55;25.60;1.00
17529;DHT22;8882;53.192;8.184;2023-06-19T17:10:20;25.50;1.00
17529;DHT22;8882;53.192;8.184;2023-06-19T17:12:48;25.50;1.00
17529;DHT22;8882;53.192;8.184;2023-06-19T17:15:13;25.50;1.00
17529;DHT22;8882;53.192;8.184;2023-06-19T17:17:39;25.40;1.00
17529;DHT22;8882;53.192;8.184;2023-06-19T17:20:06;25.40;1.00
17529;DHT22;8882;53.192;8.184;2023-06-19T17:22:34;25.30;1.00
17529;DHT22;8882;53.192;8.184;2023-06-19T17:25:00;25.30;1.00
17529;DHT22;8882;53.192;8.184;2023-06-19T17:27:25;25.30;1.00
17529;DHT22;8882;53.192;8.184;2023-06-19T17:29:51;25.20;1.00
17529;DHT22;8882;53.192;8.184;2023-06-19T17:32:16;25.20;1.00
17529;DHT22;8882;53.192;8.184;2023-06-19T17:34:42;25.20;1.00
17529;DHT22;8882;53.192;8.184;2023-06-19T17:37:07;25.20;1.00
17529;DHT22;8882;53.192;8.184;2023-06-19T17:39:33;25.10;1.00
17529;DHT22;8882;53.192;8.184;2023-06-19T17:41:58;25.20;1.00
17529;DHT22;8882;53.192;8.184;2023-06-19T17:44:24;25.10;1.00
17529;DHT22;8882;53.192;8.184;2023-06-19T17:46:51;25.10;1.00
17529;DHT22;8882;53.192;8.184;2023-06-19T17:49:17;25.10;1.00
17529;DHT22;8882;53.192;8.184;2023-06-19T17:51:45;25.10;1.00
17529;DHT22;8882;53.192;8.184;2023-06-19T17:54:10;25.10;1.00
17529;DHT22;8882;53.192;8.184;2023-06-19T17:56:36;25.00;1.00
17529;DHT22;8882;53.192;8.184;2023-06-19T17:59:02;25.00;99.90
17529;DHT22;8882;53.192;8.184;2023-06-19T18:01:27;25.00;99.90
17529;DHT22;8882;53.192;8.184;2023-06-19T18:03:53;25.00;99.90
17529;DHT22;8882;53.192;8.184;2023-06-19T18:06:19;24.90;99.90
17529;DHT22;8882;53.192;8.184;2023-06-19T18:08:44;24.90;99.90
17529;DHT22;8882;53.192;8.184;2023-06-19T18:11:10;24.90;99.90
17529;DHT22;8882;53.192;8.184;2023-06-19T18:13:35;24.80;99.90
17529;DHT22;8882;53.192;8.184;2023-06-19T18:16:01;24.80;99.90
17529;DHT22;8882;53.192;8.184;2023-06-19T18:18:26;24.80;99.90
17529;DHT22;8882;53.192;8.184;2023-06-19T18:20:52;24.70;99.90
17529;DHT22;8882;53.192;8.184;2023-06-19T18:23:17;24.80;99.90
17529;DHT22;8882;53.192;8.184;2023-06-19T18:25:43;24.70;99.90
17529;DHT22;8882;53.192;8.184;2023-06-19T18:28:08;24.70;99.90
17529;DHT22;8882;53.192;8.184;2023-06-19T18:30:34;24.60;99.90
17529;DHT22;8882;53.192;8.184;2023-06-19T18:32:59;24.70;1.00
17529;DHT22;8882;53.192;8.184;2023-06-19T18:35:25;24.70;99.90
17529;DHT22;8882;53.192;8.184;2023-06-19T18:37:51;24.60;99.90
17529;DHT22;8882;53.192;8.184;2023-06-19T18:40:16;24.50;99.90
17529;DHT22;8882;53.192;8.184;2023-06-19T18:42:42;24.50;99.90
17529;DHT22;8882;53.192;8.184;2023-06-19T18:45:08;24.50;99.90
17529;DHT22;8882;53.192;8.184;2023-06-19T18:47:33;24.50;99.90
17529;DHT22;8882;53.192;8.184;2023-06-19T18:49:59;24.60;1.00
17529;DHT22;8882;53.192;8.184;2023-06-19T18:52:24;24.60;1.00
17529;DHT22;8882;53.192;8.184;2023-06-19T18:54:50;24.50;1.00
17529;DHT22;8882;53.192;8.184;2023-06-19T18:57:15;24.30;1.00
17529;DHT22;8882;53.192;8.184;2023-06-19T18:59:41;24.30;1.00
17529;DHT22;8882;53.192;8.184;2023-06-19T19:02:06;24.30;1.00
17529;DHT22;8882;53.192;8.184;2023-06-19T19:04:35;24.20;1.00
17529;DHT22;8882;53.192;8.184;2023-06-19T19:07:03;24.20;1.00
17529;DHT22;8882;53.192;8.184;2023-06-19T19:09:28;24.20;1.00
17529;DHT22;8882;53.192;8.184;2023-06-19T19:11:54;24.10;1.00
17529;DHT22;8882;53.192;8.184;2023-06-19T19:14:20;24.10;1.00
17529;DHT22;8882;53.192;8.184;2023-06-19T19:16:45;24.00;1.00
17529;DHT22;8882;53.192;8.184;2023-06-19T19:19:11;24.00;1.00
17529;DHT22;8882;53.192;8.184;2023-06-19T19:21:36;23.90;1.00
17529;DHT22;8882;53.192;8.184;2023-06-19T19:24:02;23.80;1.00
17529;DHT22;8882;53.192;8.184;2023-06-19T19:26:27;23.80;1.00
17529;DHT22;8882;53.192;8.184;2023-06-19T19:28:53;23.70;1.00
17529;DHT22;8882;53.192;8.184;2023-06-19T19:31:18;23.60;1.00
17529;DHT22;8882;53.192;8.184;2023-06-19T19:33:44;23.50;1.00
17529;DHT22;8882;53.192;8.184;2023-06-19T19:36:09;23.40;1.00
17529;DHT22;8882;53.192;8.184;2023-06-19T19:38:35;23.40;1.00
17529;DHT22;8882;53.192;8.184;2023-06-19T19:41:00;23.30;1.00
17529;DHT22;8882;53.192;8.184;2023-06-19T19:43:26;23.30;1.00
17529;DHT22;8882;53.192;8.184;2023-06-19T19:45:51;23.20;1.00
17529;DHT22;8882;53.192;8.184;2023-06-19T19:48:18;23.10;1.00
17529;DHT22;8882;53.192;8.184;2023-06-19T19:50:43;23.10;1.00
17529;DHT22;8882;53.192;8.184;2023-06-19T19:53:09;23.00;1.00
17529;DHT22;8882;53.192;8.184;2023-06-19T19:55:34;23.00;1.00
17529;DHT22;8882;53.192;8.184;2023-06-19T19:58:00;22.90;1.00
17529;DHT22;8882;53.192;8.184;2023-06-19T20:00:27;22.90;1.00
17529;DHT22;8882;53.192;8.184;2023-06-19T20:02:53;22.70;1.00
17529;DHT22;8882;53.192;8.184;2023-06-19T20:05:18;22.60;1.00
17529;DHT22;8882;53.192;8.184;2023-06-19T20:07:44;22.50;1.00
17529;DHT22;8882;53.192;8.184;2023-06-19T20:10:10;22.40;1.00
17529;DHT22;8882;53.192;8.184;2023-06-19T20:12:35;22.30;1.00
17529;DHT22;8882;53.192;8.184;2023-06-19T20:15:01;22.30;1.00
17529;DHT22;8882;53.192;8.184;2023-06-19T20:17:29;22.20;1.00
17529;DHT22;8882;53.192;8.184;2023-06-19T20:19:54;22.10;1.00
17529;DHT22;8882;53.192;8.184;2023-06-19T20:22:20;21.90;1.00
17529;DHT22;8882;53.192;8.184;2023-06-19T20:24:45;21.80;1.00